Time;durP1;ratioP1;P1;durP2;ratioP2;P2;SDS_P1;SDS_P2;PMS_P1;PMS_P2;Temp;Humidity;BMP_temperature;BMP_pressure;BME280_temperature;BME280_humidity;BME280_pressure;Samples;Min_cycle;Max_cycle;Signal;HPM_P1;HPM_P2
2023/04/27 00:00:56;;;;;;;2.97;1.25;;;;;;;;;;5052736;28;20272;-80
2023/04/27 00:03:21;;;;;;;3.50;1.15;;;;;;;;;;5056154;28;20370;-80
2023/04/27 00:05:47;;;;;;;2.85;1.10;;;;;;;;;;5051644;28;20120;-80
2023/04/27 00:08:12;;;;;;;4.53;1.52;;;;;;;;;;5037726;28;20168;-80
2023/04/27 00:10:37;;;;;;;4.85;1.20;;;;;;;;;;5043776;28;20059;-79
2023/04/27 00:13:03;;;;;;;4.32;1.15;;;;;;;;;;5055182;28;21250;-80
2023/04/27 00:15:28;;;;;;;3.17;1.00;;;;;;;;;;5051034;28;20499;-78
2023/04/27 00:17:54;;;;;;;2.95;0.93;;;;;;;;;;5060072;28;20055;-80
2023/04/27 00:20:19;;;;;;;3.88;1.15;;;;;;;;;;5051530;28;20043;-80
2023/04/27 00:22:45;;;;;;;1.63;0.80;;;;;;;;;;5042485;28;20033;-80
2023/04/27 00:25:11;;;;;;;4.47;1.27;;;;;;;;;;5049806;28;20114;-79
2023/04/27 00:27:36;;;;;;;4.75;1.40;;;;;;;;;;5060841;28;20036;-80
2023/04/27 00:30:03;;;;;;;2.92;1.05;;;;;;;;;;5040198;28;20051;-80
2023/04/27 00:32:28;;;;;;;5.28;1.00;;;;;;;;;;5051841;28;20039;-78
2023/04/27 00:34:53;;;;;;;4.55;1.20;;;;;;;;;;5051804;28;20528;-80
2023/04/27 00:37:19;;;;;;;3.38;1.45;;;;;;;;;;5054965;28;20385;-80
2023/04/27 00:39:44;;;;;;;3.97;1.30;;;;;;;;;;5051769;28;20044;-80
2023/04/27 00:42:14;;;;;;;4.53;1.05;;;;;;;;;;5038040;28;20115;-80
2023/04/27 00:44:39;;;;;;;2.65;1.20;;;;;;;;;;5051340;28;20102;-80
2023/04/27 00:47:04;;;;;;;3.95;1.38;;;;;;;;;;5049008;28;20415;-79
2023/04/27 00:49:30;;;;;;;2.55;0.95;;;;;;;;;;5051753;28;20041;-79
2023/04/27 00:51:55;;;;;;;4.60;1.30;;;;;;;;;;5052184;28;20385;-80
2023/04/27 00:54:21;;;;;;;3.00;0.88;;;;;;;;;;5052582;28;20052;-80
2023/04/27 00:56:50;;;;;;;2.83;1.02;;;;;;;;;;5035947;28;20025;-79
2023/04/27 00:59:16;;;;;;;3.47;1.00;;;;;;;;;;5049685;28;20397;-80
2023/04/27 01:01:42;;;;;;;4.53;1.45;;;;;;;;;;5052721;28;20572;-80
2023/04/27 01:04:08;;;;;;;4.00;1.60;;;;;;;;;;5042306;28;20135;-80
2023/04/27 01:06:33;;;;;;;3.60;0.95;;;;;;;;;;5050279;28;20047;-80
2023/04/27 01:08:59;;;;;;;2.80;1.10;;;;;;;;;;5035647;28;20040;-80
2023/04/27 01:11:24;;;;;;;3.33;1.00;;;;;;;;;;5051119;28;20502;-80
2023/04/27 01:13:50;;;;;;;3.22;1.27;;;;;;;;;;5049683;28;20036;-80
2023/04/27 01:16:17;;;;;;;3.17;1.42;;;;;;;;;;5049657;28;20059;-80
2023/04/27 01:18:43;;;;;;;3.72;1.10;;;;;;;;;;5048637;28;20091;-80
2023/04/27 01:21:09;;;;;;;4.13;1.10;;;;;;;;;;5051288;28;20045;-80
2023/04/27 01:23:34;;;;;;;3.42;1.27;;;;;;;;;;5043315;28;20299;-79
2023/04/27 01:26:00;;;;;;;4.63;1.20;;;;;;;;;;5032391;28;20048;-79
2023/04/27 01:28:25;;;;;;;3.58;1.02;;;;;;;;;;5058568;28;20032;-79
2023/04/27 01:30:50;;;;;;;7.45;1.65;;;;;;;;;;5051039;28;20044;-80
2023/04/27 01:33:16;;;;;;;3.80;1.17;;;;;;;;;;5048595;28;20119;-80
2023/04/27 01:35:41;;;;;;;5.03;1.15;;;;;;;;;;5055890;28;20556;-80
2023/04/27 01:38:06;;;;;;;3.42;1.30;;;;;;;;;;5051686;28;20047;-79
2023/04/27 01:40:32;;;;;;;3.22;1.20;;;;;;;;;;5050195;28;20036;-80
2023/04/27 01:42:58;;;;;;;3.00;1.00;;;;;;;;;;5052454;28;20108;-80
2023/04/27 01:45:23;;;;;;;3.35;1.25;;;;;;;;;;5036534;28;20040;-80
2023/04/27 01:47:52;;;;;;;3.25;1.05;;;;;;;;;;5049296;28;20041;-80
2023/04/27 01:50:17;;;;;;;3.67;1.42;;;;;;;;;;5043063;28;20504;-80
2023/04/27 01:52:43;;;;;;;3.70;1.08;;;;;;;;;;5050520;28;20102;-80
2023/04/27 01:55:08;;;;;;;2.80;1.10;;;;;;;;;;5054287;28;20851;-80
2023/04/27 01:57:34;;;;;;;2.70;1.17;;;;;;;;;;5040674;28;20440;-79
2023/04/27 01:59:59;;;;;;;4.35;1.17;;;;;;;;;;5050590;28;20047;-79
2023/04/27 02:02:25;;;;;;;3.90;1.15;;;;;;;;;;5048405;28;20055;-80
2023/04/27 02:04:50;;;;;;;8.95;1.45;;;;;;;;;;5050551;28;20040;-80
2023/04/27 02:07:15;;;;;;;4.57;1.30;;;;;;;;;;5049542;28;20043;-80
2023/04/27 02:09:41;;;;;;;3.63;1.58;;;;;;;;;;5050102;28;20040;-80
2023/04/27 02:12:06;;;;;;;3.92;1.40;;;;;;;;;;5052944;28;20738;-80
2023/04/27 02:14:32;;;;;;;2.78;1.02;;;;;;;;;;5049043;28;20041;-79
2023/04/27 02:16:57;;;;;;;3.70;1.45;;;;;;;;;;5041458;28;20056;-80
2023/04/27 02:19:23;;;;;;;4.53;1.13;;;;;;;;;;5050871;28;20021;-80
2023/04/27 02:21:48;;;;;;;2.78;1.08;;;;;;;;;;5033768;28;20107;-80
2023/04/27 02:24:13;;;;;;;2.47;1.15;;;;;;;;;;5051108;28;20045;-80
2023/04/27 02:26:39;;;;;;;3.47;1.40;;;;;;;;;;5030600;28;20067;-80
2023/04/27 02:29:04;;;;;;;3.70;1.45;;;;;;;;;;5051754;28;20041;-80
2023/04/27 02:31:29;;;;;;;2.72;1.30;;;;;;;;;;5058151;28;20163;-80
2023/04/27 02:33:55;;;;;;;6.72;1.50;;;;;;;;;;5059661;28;20039;-79
2023/04/27 02:36:20;;;;;;;3.22;1.25;;;;;;;;;;5051637;28;20029;-79
2023/04/27 02:38:45;;;;;;;4.63;1.27;;;;;;;;;;5046232;28;20369;-80
2023/04/27 02:41:11;;;;;;;3.13;1.20;;;;;;;;;;5042631;28;20097;-80
2023/04/27 02:43:36;;;;;;;4.18;1.48;;;;;;;;;;5052263;28;20500;-80
2023/04/27 02:46:02;;;;;;;2.53;1.20;;;;;;;;;;5055966;28;20044;-80
2023/04/27 02:48:29;;;;;;;3.60;1.10;;;;;;;;;;5050016;28;20058;-80
2023/04/27 02:50:55;;;;;;;11.90;2.93;;;;;;;;;;5050698;28;20489;-80
2023/04/27 02:53:21;;;;;;;7.85;1.30;;;;;;;;;;5058425;28;20488;-80
2023/04/27 02:55:49;;;;;;;4.38;1.33;;;;;;;;;;5053417;28;20033;-81
2023/04/27 02:58:16;;;;;;;4.97;1.05;;;;;;;;;;5062562;28;20087;-80
2023/04/27 03:00:42;;;;;;;3.17;1.30;;;;;;;;;;5060231;28;20032;-79
2023/04/27 03:03:08;;;;;;;5.45;1.20;;;;;;;;;;5040652;28;20040;-80
2023/04/27 03:05:35;;;;;;;2.63;1.10;;;;;;;;;;5044232;28;20045;-80
2023/04/27 03:08:00;;;;;;;2.55;1.30;;;;;;;;;;5055232;28;20043;-80
2023/04/27 03:10:25;;;;;;;5.15;1.45;;;;;;;;;;5054774;28;20066;-81
2023/04/27 03:12:51;;;;;;;4.35;1.27;;;;;;;;;;5061910;28;20041;-80
2023/04/27 03:15:16;;;;;;;4.20;1.10;;;;;;;;;;5044797;28;20079;-80
2023/04/27 03:17:42;;;;;;;4.50;1.30;;;;;;;;;;5053987;28;20103;-80
2023/04/27 03:20:10;;;;;;;3.42;1.23;;;;;;;;;;5036298;28;20038;-79
2023/04/27 03:22:35;;;;;;;5.03;1.52;;;;;;;;;;5055951;28;20040;-81
2023/04/27 03:25:02;;;;;;;2.95;1.25;;;;;;;;;;5042216;28;20063;-80
2023/04/27 03:27:27;;;;;;;4.60;1.58;;;;;;;;;;5061922;28;20049;-80
2023/04/27 03:29:53;;;;;;;5.32;1.42;;;;;;;;;;5045377;28;20679;-80
2023/04/27 03:32:18;;;;;;;5.90;1.30;;;;;;;;;;5051903;28;20551;-80
2023/04/27 03:34:44;;;;;;;4.15;1.67;;;;;;;;;;5055192;28;20492;-80
2023/04/27 03:37:09;;;;;;;5.13;1.60;;;;;;;;;;5037633;28;20488;-80
2023/04/27 03:39:35;;;;;;;4.95;1.40;;;;;;;;;;5042275;28;20044;-81
2023/04/27 03:42:01;;;;;;;4.43;1.40;;;;;;;;;;5049347;28;20137;-80
2023/04/27 03:44:26;;;;;;;3.03;1.33;;;;;;;;;;5053069;28;20407;-81
2023/04/27 03:46:52;;;;;;;5.70;1.30;;;;;;;;;;5051683;28;20033;-81
2023/04/27 03:49:18;;;;;;;2.33;1.08;;;;;;;;;;5053130;28;20051;-81
2023/04/27 03:51:43;;;;;;;2.33;1.20;;;;;;;;;;5060686;28;20041;-80
2023/04/27 03:54:08;;;;;;;8.85;1.80;;;;;;;;;;5035345;28;20047;-81
2023/04/27 03:56:34;;;;;;;3.95;1.42;;;;;;;;;;5049012;28;20037;-80
2023/04/27 03:59:00;;;;;;;6.18;1.33;;;;;;;;;;5061060;28;20036;-80
2023/04/27 04:01:25;;;;;;;5.00;1.25;;;;;;;;;;5051711;28;20033;-80
2023/04/27 04:03:50;;;;;;;4.03;1.80;;;;;;;;;;5055470;28;20456;-80
2023/04/27 04:06:16;;;;;;;3.08;1.10;;;;;;;;;;5050701;28;20705;-79
2023/04/27 04:08:41;;;;;;;3.45;1.25;;;;;;;;;;5051240;28;20036;-80
2023/04/27 04:11:07;;;;;;;3.60;1.13;;;;;;;;;;5049136;28;20148;-80
2023/04/27 04:13:32;;;;;;;3.95;1.20;;;;;;;;;;5052042;28;20029;-79
2023/04/27 04:16:02;;;;;;;4.18;1.48;;;;;;;;;;5053314;28;20037;-80
2023/04/27 04:18:27;;;;;;;4.88;1.70;;;;;;;;;;5052262;28;20036;-80
2023/04/27 04:20:53;;;;;;;6.03;1.50;;;;;;;;;;5054105;28;20114;-80
2023/04/27 04:23:18;;;;;;;3.70;1.42;;;;;;;;;;5051992;28;20041;-80
2023/04/27 04:25:46;;;;;;;3.90;1.20;;;;;;;;;;5054004;28;20033;-81
2023/04/27 04:28:12;;;;;;;4.95;1.35;;;;;;;;;;5053636;28;20060;-81
2023/04/27 04:30:38;;;;;;;3.00;1.38;;;;;;;;;;5051470;28;20033;-81
2023/04/27 04:33:04;;;;;;;5.00;1.20;;;;;;;;;;5052071;28;20040;-80
2023/04/27 04:35:31;;;;;;;4.15;1.30;;;;;;;;;;5037749;28;20063;-78
2023/04/27 04:37:57;;;;;;;3.60;1.30;;;;;;;;;;5054342;28;20106;-81
2023/04/27 04:40:23;;;;;;;4.93;1.35;;;;;;;;;;5051089;28;20036;-80
2023/04/27 04:42:48;;;;;;;3.35;1.38;;;;;;;;;;5055425;28;20033;-80
2023/04/27 04:45:14;;;;;;;4.65;1.70;;;;;;;;;;5052547;28;20107;-82
2023/04/27 04:47:40;;;;;;;5.47;1.88;;;;;;;;;;5036961;28;20036;-82
2023/04/27 04:50:07;;;;;;;7.57;1.60;;;;;;;;;;5050922;28;20067;-80
2023/04/27 04:52:32;;;;;;;6.07;1.70;;;;;;;;;;5051294;28;20498;-80
2023/04/27 04:54:58;;;;;;;7.00;1.40;;;;;;;;;;5043956;28;20041;-81
2023/04/27 04:57:23;;;;;;;5.85;1.38;;;;;;;;;;5059708;28;20040;-80
2023/04/27 04:59:49;;;;;;;5.38;1.35;;;;;;;;;;5041108;28;20040;-80
2023/04/27 05:02:15;;;;;;;3.47;1.45;;;;;;;;;;5051056;28;20119;-83
2023/04/27 05:04:40;;;;;;;5.45;1.73;;;;;;;;;;5051595;28;20625;-82
2023/04/27 05:07:05;;;;;;;4.85;1.60;;;;;;;;;;5050238;28;20512;-81
2023/04/27 05:09:31;;;;;;;8.45;1.60;;;;;;;;;;5056900;28;20391;-80
2023/04/27 05:11:56;;;;;;;6.88;1.88;;;;;;;;;;5049305;28;20048;-82
2023/04/27 05:14:21;;;;;;;5.30;1.60;;;;;;;;;;5055385;28;20094;-82
2023/04/27 05:16:48;;;;;;;3.92;1.17;;;;;;;;;;5050261;28;20039;-82
2023/04/27 05:19:17;;;;;;;5.20;1.45;;;;;;;;;;5048373;28;20554;-82
2023/04/27 05:21:44;;;;;;;3.75;1.30;;;;;;;;;;5037229;28;20040;-80
2023/04/27 05:24:10;;;;;;;3.33;1.33;;;;;;;;;;5049281;28;20127;-79
2023/04/27 05:26:35;;;;;;;3.53;1.60;;;;;;;;;;5046018;28;20128;-80
2023/04/27 05:29:00;;;;;;;8.02;1.55;;;;;;;;;;5035094;28;20502;-80
2023/04/27 05:31:26;;;;;;;4.50;1.40;;;;;;;;;;5057582;28;20029;-80
2023/04/27 05:33:52;;;;;;;5.40;1.80;;;;;;;;;;5036251;28;20044;-79
2023/04/27 05:36:17;;;;;;;4.28;1.55;;;;;;;;;;5051255;28;20047;-79
2023/04/27 05:38:42;;;;;;;4.88;1.45;;;;;;;;;;5048200;28;20040;-79
2023/04/27 05:41:08;;;;;;;5.05;1.70;;;;;;;;;;5052017;28;20032;-79
2023/04/27 05:43:37;;;;;;;2.83;1.20;;;;;;;;;;5052189;28;20036;-79
2023/04/27 05:46:03;;;;;;;4.82;1.40;;;;;;;;;;5032199;28;20043;-79
2023/04/27 05:48:28;;;;;;;7.97;1.85;;;;;;;;;;5051922;28;20500;-80
2023/04/27 05:51:01;;;;;;;7.00;1.52;;;;;;;;;;5048683;28;20402;-80
2023/04/27 05:53:29;;;;;;;6.72;1.80;;;;;;;;;;5047268;28;20036;-81
2023/04/27 05:55:55;;;;;;;5.00;1.42;;;;;;;;;;5049093;28;20029;-80
2023/04/27 05:58:21;;;;;;;3.50;1.52;;;;;;;;;;5051104;28;20144;-80
2023/04/27 06:00:46;;;;;;;6.20;1.45;;;;;;;;;;5036573;28;20163;-80
2023/04/27 06:03:11;;;;;;;6.75;1.27;;;;;;;;;;5050148;28;20063;-79
2023/04/27 06:05:37;;;;;;;5.53;1.20;;;;;;;;;;5047952;28;20025;-79
2023/04/27 06:08:02;;;;;;;4.60;1.35;;;;;;;;;;5051084;28;20059;-79
2023/04/27 06:10:27;;;;;;;5.43;1.40;;;;;;;;;;5049763;28;20792;-79
2023/04/27 06:12:53;;;;;;;5.18;1.40;;;;;;;;;;5049379;28;20032;-79
2023/04/27 06:15:18;;;;;;;5.55;1.38;;;;;;;;;;5049890;28;20106;-80
2023/04/27 06:17:44;;;;;;;6.40;1.80;;;;;;;;;;5042741;28;20036;-80
2023/04/27 06:20:10;;;;;;;3.22;1.35;;;;;;;;;;5051273;28;20040;-80
2023/04/27 06:22:36;;;;;;;3.05;1.00;;;;;;;;;;5050992;28;20060;-80
2023/04/27 06:25:02;;;;;;;3.53;1.15;;;;;;;;;;5049970;28;20131;-79
2023/04/27 06:27:28;;;;;;;3.75;1.10;;;;;;;;;;5051452;28;20082;-79
2023/04/27 06:29:53;;;;;;;3.47;1.10;;;;;;;;;;5053770;28;20949;-80
2023/04/27 06:32:19;;;;;;;3.90;1.23;;;;;;;;;;5019132;28;20137;-79
2023/04/27 06:34:45;;;;;;;3.60;1.20;;;;;;;;;;5034541;28;20124;-79
2023/04/27 06:37:10;;;;;;;3.13;0.90;;;;;;;;;;5048604;28;20048;-79
2023/04/27 06:39:36;;;;;;;3.75;1.10;;;;;;;;;;5054668;28;20120;-79
2023/04/27 06:42:03;;;;;;;3.72;0.98;;;;;;;;;;5060799;28;20032;-79
2023/04/27 06:44:28;;;;;;;2.90;1.05;;;;;;;;;;5054332;28;21061;-79
2023/04/27 06:46:54;;;;;;;8.63;1.42;;;;;;;;;;5042988;28;20047;-79
2023/04/27 06:49:19;;;;;;;3.83;1.02;;;;;;;;;;5037919;28;20040;-79
2023/04/27 06:51:45;;;;;;;4.22;1.20;;;;;;;;;;5038055;28;20036;-79
2023/04/27 06:54:11;;;;;;;5.93;1.10;;;;;;;;;;5053293;28;20229;-79
2023/04/27 06:56:57;;;;;;;3.65;1.30;;;;;;;;;;5054700;28;20560;-79
2023/04/27 06:59:22;;;;;;;3.53;1.30;;;;;;;;;;4967994;28;20540;-78
2023/04/27 07:01:48;;;;;;;2.88;0.80;;;;;;;;;;4980201;28;20034;-79
2023/04/27 07:04:13;;;;;;;3.13;1.10;;;;;;;;;;4985565;28;20042;-79
2023/04/27 07:06:38;;;;;;;4.40;1.15;;;;;;;;;;4995180;28;20033;-78
2023/04/27 07:09:07;;;;;;;3.22;0.90;;;;;;;;;;4994723;28;20149;-78
2023/04/27 07:11:32;;;;;;;3.60;1.20;;;;;;;;;;4992030;28;20038;-78
2023/04/27 07:13:57;;;;;;;3.40;1.08;;;;;;;;;;4996334;28;20504;-78
2023/04/27 07:16:23;;;;;;;3.80;1.05;;;;;;;;;;4995935;28;20069;-78
2023/04/27 07:18:48;;;;;;;7.88;1.23;;;;;;;;;;4978898;28;20726;-81
2023/04/27 07:21:14;;;;;;;4.82;1.08;;;;;;;;;;4991807;28;20802;-80
2023/04/27 07:23:42;;;;;;;3.58;1.00;;;;;;;;;;4985277;28;20045;-80
2023/04/27 07:26:08;;;;;;;3.13;1.10;;;;;;;;;;4995812;28;20533;-80
2023/04/27 07:28:34;;;;;;;4.32;1.10;;;;;;;;;;4979421;28;20057;-79
2023/04/27 07:31:00;;;;;;;4.35;1.00;;;;;;;;;;4995354;28;20790;-79
2023/04/27 07:33:26;;;;;;;4.13;1.20;;;;;;;;;;4982096;28;20038;-79
2023/04/27 07:35:52;;;;;;;3.28;1.17;;;;;;;;;;5010810;28;20045;-79
2023/04/27 07:38:18;;;;;;;3.50;1.10;;;;;;;;;;5044941;28;20131;-79
2023/04/27 07:40:45;;;;;;;6.90;1.77;;;;;;;;;;5024219;28;20648;-79
2023/04/27 07:43:10;;;;;;;2.67;1.10;;;;;;;;;;5050728;28;20055;-80
2023/04/27 07:45:38;;;;;;;5.22;1.13;;;;;;;;;;5050606;28;20041;-80
2023/04/27 07:48:04;;;;;;;4.47;1.00;;;;;;;;;;5051347;28;20037;-79
2023/04/27 07:50:29;;;;;;;4.05;1.30;;;;;;;;;;5053798;28;20488;-80
2023/04/27 07:52:55;;;;;;;5.30;1.23;;;;;;;;;;5054158;28;20028;-79
2023/04/27 07:55:22;;;;;;;2.53;1.00;;;;;;;;;;5055141;28;20429;-79
2023/04/27 07:57:48;;;;;;;5.00;1.40;;;;;;;;;;5054910;28;20106;-79
2023/04/27 08:00:14;;;;;;;4.60;1.52;;;;;;;;;;5043415;28;20460;-79
2023/04/27 08:02:40;;;;;;;4.60;1.00;;;;;;;;;;5053185;28;20040;-80
2023/04/27 08:05:05;;;;;;;4.63;1.48;;;;;;;;;;5055489;28;20481;-79
2023/04/27 08:07:33;;;;;;;4.47;1.48;;;;;;;;;;5059168;28;20036;-79
2023/04/27 08:09:58;;;;;;;3.42;1.33;;;;;;;;;;5052398;28;20037;-79
2023/04/27 08:12:23;;;;;;;3.42;1.25;;;;;;;;;;5053543;28;20388;-79
2023/04/27 08:14:49;;;;;;;3.53;1.17;;;;;;;;;;5052650;28;20032;-79
2023/04/27 08:17:16;;;;;;;11.70;1.67;;;;;;;;;;5053761;28;20040;-79
2023/04/27 08:19:41;;;;;;;5.38;1.05;;;;;;;;;;5053546;28;20122;-80
2023/04/27 08:22:07;;;;;;;3.85;1.13;;;;;;;;;;5052536;28;20071;-81
2023/04/27 08:24:32;;;;;;;4.95;1.70;;;;;;;;;;5054513;28;20037;-80
2023/04/27 08:26:58;;;;;;;3.13;0.90;;;;;;;;;;5053689;28;20033;-81
2023/04/27 08:29:23;;;;;;;2.67;0.90;;;;;;;;;;5053562;28;20512;-79
2023/04/27 08:31:48;;;;;;;3.03;0.95;;;;;;;;;;5050861;28;20036;-79
2023/04/27 08:34:14;;;;;;;4.55;1.08;;;;;;;;;;5052988;28;20567;-79
2023/04/27 08:36:40;;;;;;;2.85;1.10;;;;;;;;;;5053587;28;20039;-79
2023/04/27 08:39:06;;;;;;;4.72;1.25;;;;;;;;;;5052701;28;20052;-80
2023/04/27 08:41:32;;;;;;;4.50;1.38;;;;;;;;;;5041326;28;20503;-79
2023/04/27 08:43:57;;;;;;;2.92;1.20;;;;;;;;;;5057829;28;20128;-80
2023/04/27 08:46:25;;;;;;;4.38;1.10;;;;;;;;;;5051871;28;20037;-79
2023/04/27 08:48:55;;;;;;;3.47;1.10;;;;;;;;;;5052296;28;20040;-80
2023/04/27 08:51:21;;;;;;;4.28;1.17;;;;;;;;;;5050742;28;20036;-79
2023/04/27 08:53:50;;;;;;;4.43;1.10;;;;;;;;;;5051685;28;20075;-79
2023/04/27 08:56:17;;;;;;;3.45;1.30;;;;;;;;;;5068870;28;20036;-79
2023/04/27 08:58:43;;;;;;;2.85;1.17;;;;;;;;;;5050642;28;20035;-78
2023/04/27 09:01:08;;;;;;;5.45;1.23;;;;;;;;;;5050770;28;20041;-80
2023/04/27 09:03:35;;;;;;;3.10;0.93;;;;;;;;;;5052356;28;20043;-80
2023/04/27 09:06:07;;;;;;;3.72;1.20;;;;;;;;;;5039790;28;20858;-79
2023/04/27 09:08:48;;;;;;;2.85;0.88;;;;;;;;;;5050377;28;20484;-79
2023/04/27 09:11:15;;;;;;;2.60;1.00;;;;;;;;;;5048742;28;20033;-80
2023/04/27 09:13:43;;;;;;;4.05;1.20;;;;;;;;;;5052628;28;20564;-79
2023/04/27 09:16:10;;;;;;;3.88;0.80;;;;;;;;;;5053580;28;20029;-80
2023/04/27 09:18:36;;;;;;;1.73;0.73;;;;;;;;;;5052683;28;20029;-79
2023/04/27 09:21:05;;;;;;;3.28;1.17;;;;;;;;;;5038203;28;20039;-79
2023/04/27 09:23:33;;;;;;;2.97;1.08;;;;;;;;;;5040699;28;20052;-79
2023/04/27 09:26:00;;;;;;;2.53;0.90;;;;;;;;;;5058854;28;20045;-79
2023/04/27 09:28:29;;;;;;;;;;;;;;;;;;5063090;28;20041;-78
2023/04/27 09:31:00;;;;;;;2.85;1.20;;;;;;;;;;5046966;28;20425;-79
2023/04/27 09:33:33;;;;;;;2.08;0.90;;;;;;;;;;5051161;28;20040;-79
2023/04/27 09:36:00;;;;;;;2.92;1.15;;;;;;;;;;5051409;28;20500;-79
2023/04/27 09:38:26;;;;;;;3.83;1.10;;;;;;;;;;5060481;28;20454;-79
2023/04/27 09:40:53;;;;;;;6.20;1.50;;;;;;;;;;5042188;28;20033;-79
2023/04/27 09:43:18;;;;;;;6.22;1.30;;;;;;;;;;5050378;28;20087;-79
2023/04/27 09:45:45;;;;;;;3.20;1.42;;;;;;;;;;5049285;28;20569;-79
2023/04/27 09:48:11;;;;;;;3.60;1.33;;;;;;;;;;5036711;28;20536;-79
2023/04/27 09:50:38;;;;;;;2.78;1.30;;;;;;;;;;5050998;28;20867;-79
2023/04/27 09:53:18;;;;;;;8.07;1.73;;;;;;;;;;5042884;28;20679;-79
2023/04/27 09:55:47;;;;;;;3.80;1.20;;;;;;;;;;5057433;28;20040;-79
2023/04/27 09:58:50;;;;;;;4.38;1.20;;;;;;;;;;5052428;28;20381;-79
2023/04/27 10:01:18;;;;;;;4.00;1.33;;;;;;;;;;5051642;28;20047;-78
2023/04/27 10:04:02;;;;;;;3.08;1.20;;;;;;;;;;5051989;28;20047;-78
2023/04/27 10:06:45;;;;;;;3.65;1.17;;;;;;;;;;5050126;28;20546;-78
2023/04/27 10:09:11;;;;;;;3.55;1.63;;;;;;;;;;5049764;28;20499;-79
2023/04/27 10:11:42;;;;;;;5.13;1.10;;;;;;;;;;5048827;28;20033;-78
2023/04/27 10:14:09;;;;;;;4.88;1.30;;;;;;;;;;5058514;28;20055;-79
2023/04/27 10:16:56;;;;;;;8.77;1.15;;;;;;;;;;5048929;28;20044;-78
2023/04/27 10:19:24;;;;;;;4.25;1.52;;;;;;;;;;5048820;28;20136;-78
2023/04/27 10:21:53;;;;;;;3.60;1.00;;;;;;;;;;5051902;28;20056;-78
2023/04/27 10:24:18;;;;;;;2.20;1.00;;;;;;;;;;5040822;28;20460;-79
2023/04/27 10:26:47;;;;;;;2.50;0.93;;;;;;;;;;5049302;28;20160;-79
2023/04/27 10:29:15;;;;;;;3.38;1.00;;;;;;;;;;5049106;28;20040;-79
2023/04/27 10:31:44;;;;;;;2.47;0.75;;;;;;;;;;5049674;28;20032;-79
2023/04/27 10:34:11;;;;;;;3.08;0.90;;;;;;;;;;5041851;28;20595;-80
2023/04/27 10:36:37;;;;;;;4.05;1.05;;;;;;;;;;5058295;28;20037;-79
2023/04/27 10:39:24;;;;;;;5.00;1.10;;;;;;;;;;5048818;28;20044;-80
2023/04/27 10:41:54;;;;;;;2.28;0.73;;;;;;;;;;5051011;28;20033;-80
2023/04/27 10:44:28;;;;;;;3.60;0.98;;;;;;;;;;5053053;28;20037;-80
2023/04/27 10:46:55;;;;;;;2.83;0.73;;;;;;;;;;5061251;28;20033;-80
2023/04/27 10:49:21;;;;;;;3.22;0.85;;;;;;;;;;5052583;28;20603;-79
2023/04/27 10:51:49;;;;;;;2.30;0.90;;;;;;;;;;5057194;28;20032;-79
2023/04/27 10:54:14;;;;;;;;;;;;;;;;;;5056051;28;20040;-79
2023/04/27 10:56:40;;;;;;;2.75;0.85;;;;;;;;;;5057819;28;19917;-79
2023/04/27 10:59:07;;;;;;;3.88;1.10;;;;;;;;;;5031515;28;20036;-78
2023/04/27 11:01:32;;;;;;;4.15;1.25;;;;;;;;;;5050382;28;20036;-78
2023/04/27 11:03:59;;;;;;;2.78;1.10;;;;;;;;;;5053402;28;20604;-80
2023/04/27 11:06:26;;;;;;;2.90;0.90;;;;;;;;;;5052697;28;20380;-79
2023/04/27 11:08:52;;;;;;;3.08;1.02;;;;;;;;;;5059113;28;20675;-79
2023/04/27 11:11:18;;;;;;;5.13;0.82;;;;;;;;;;5064374;28;20132;-79
2023/04/27 11:13:45;;;;;;;3.08;0.80;;;;;;;;;;5050617;28;20041;-79
2023/04/27 11:16:10;;;;;;;3.28;0.65;;;;;;;;;;5054027;28;20044;-79
2023/04/27 11:18:37;;;;;;;2.00;0.70;;;;;;;;;;5057743;28;20052;-79
2023/04/27 11:21:15;;;;;;;2.45;0.80;;;;;;;;;;5055896;28;20043;-79
2023/04/27 11:23:40;;;;;;;3.03;1.13;;;;;;;;;;5055499;28;20056;-79
2023/04/27 11:26:18;;;;;;;3.03;0.75;;;;;;;;;;5053806;28;20079;-78
2023/04/27 11:29:03;;;;;;;2.60;0.75;;;;;;;;;;5037505;28;20075;-79
2023/04/27 11:31:38;;;;;;;2.97;0.82;;;;;;;;;;5053592;28;20535;-79
2023/04/27 11:34:03;;;;;;;3.75;0.70;;;;;;;;;;5061991;28;20151;-78
2023/04/27 11:36:29;;;;;;;4.13;0.80;;;;;;;;;;5037494;28;20119;-80
2023/04/27 11:38:58;;;;;;;2.42;0.70;;;;;;;;;;5056034;28;20040;-79
2023/04/27 11:41:32;;;;;;;5.10;1.05;;;;;;;;;;5056139;28;20040;-79
2023/04/27 11:44:03;;;;;;;2.45;0.85;;;;;;;;;;5060361;28;20582;-79
2023/04/27 11:46:28;;;;;;;3.95;1.27;;;;;;;;;;5061236;28;20035;-79
2023/04/27 11:49:00;;;;;;;3.72;1.13;;;;;;;;;;5058812;28;20424;-79
2023/04/27 11:51:27;;;;;;;2.92;0.90;;;;;;;;;;5063854;28;20438;-79
2023/04/27 11:53:53;;;;;;;2.10;0.80;;;;;;;;;;5056209;28;20036;-79
2023/04/27 11:56:18;;;;;;;2.55;1.02;;;;;;;;;;5055636;28;20036;-79
2023/04/27 11:58:43;;;;;;;3.60;0.95;;;;;;;;;;5055887;28;20061;-79
2023/04/27 12:01:10;;;;;;;2.00;0.68;;;;;;;;;;5057798;28;20044;-79
2023/04/27 12:03:36;;;;;;;2.10;0.80;;;;;;;;;;5055100;28;20508;-79
2023/04/27 12:06:01;;;;;;;3.30;0.95;;;;;;;;;;5057911;28;20118;-78
2023/04/27 12:08:27;;;;;;;2.22;0.93;;;;;;;;;;5049920;28;20515;-79
2023/04/27 12:10:52;;;;;;;2.70;1.10;;;;;;;;;;5050246;28;20171;-78
2023/04/27 12:13:18;;;;;;;2.38;0.80;;;;;;;;;;5052950;28;20470;-81
2023/04/27 12:15:43;;;;;;;3.00;1.00;;;;;;;;;;5040677;28;20028;-80
2023/04/27 12:18:09;;;;;;;1.80;0.80;;;;;;;;;;5053987;28;20033;-80
2023/04/27 12:20:55;;;;;;;2.20;0.80;;;;;;;;;;5040987;28;20107;-79
2023/04/27 12:23:20;;;;;;;4.05;0.90;;;;;;;;;;4973001;28;20461;-80
2023/04/27 12:25:45;;;;;;;3.28;0.90;;;;;;;;;;4972265;28;20148;-80
2023/04/27 12:28:16;;;;;;;2.90;0.80;;;;;;;;;;4967781;28;20057;-80
2023/04/27 12:30:42;;;;;;;1.95;0.77;;;;;;;;;;4973036;28;20061;-81
2023/04/27 12:33:09;;;;;;;2.25;0.80;;;;;;;;;;4984269;28;20038;-80
2023/04/27 12:35:35;;;;;;;3.05;0.80;;;;;;;;;;4981813;28;20037;-81
2023/04/27 12:38:02;;;;;;;1.80;0.60;;;;;;;;;;4979231;28;20103;-82
2023/04/27 12:40:27;;;;;;;1.50;0.70;;;;;;;;;;4975351;28;20038;-80
2023/04/27 12:42:53;;;;;;;1.70;0.70;;;;;;;;;;4989370;28;20031;-80
2023/04/27 12:45:19;;;;;;;3.38;1.02;;;;;;;;;;4989243;28;20038;-81
2023/04/27 12:47:44;;;;;;;1.40;0.68;;;;;;;;;;4989574;28;20033;-81
2023/04/27 12:50:10;;;;;;;2.83;0.80;;;;;;;;;;4991123;28;21068;-81
2023/04/27 12:52:35;;;;;;;1.83;0.77;;;;;;;;;;4989066;28;20117;-80
2023/04/27 12:55:01;;;;;;;2.33;0.70;;;;;;;;;;4986792;28;20038;-81
2023/04/27 12:57:26;;;;;;;1.75;0.60;;;;;;;;;;4976154;28;20423;-81
2023/04/27 12:59:52;;;;;;;4.15;1.00;;;;;;;;;;4981164;28;20417;-81
2023/04/27 13:02:17;;;;;;;4.20;0.88;;;;;;;;;;5017686;28;20041;-82
2023/04/27 13:04:43;;;;;;;3.28;0.90;;;;;;;;;;5029810;28;20065;-81
2023/04/27 13:07:08;;;;;;;3.05;0.82;;;;;;;;;;5044014;28;20396;-81
2023/04/27 13:09:35;;;;;;;2.15;0.80;;;;;;;;;;5034893;28;20104;-81
2023/04/27 13:12:00;;;;;;;1.73;0.75;;;;;;;;;;5055016;28;20048;-81
2023/04/27 13:14:27;;;;;;;2.58;0.88;;;;;;;;;;5067044;28;20403;-81
2023/04/27 13:16:52;;;;;;;2.92;0.70;;;;;;;;;;5051538;28;20503;-80
2023/04/27 13:19:18;;;;;;;1.67;0.60;;;;;;;;;;5037585;28;20041;-81
2023/04/27 13:21:43;;;;;;;1.77;0.60;;;;;;;;;;5050523;28;20056;-81
2023/04/27 13:24:09;;;;;;;3.58;0.80;;;;;;;;;;5050690;28;20703;-80
2023/04/27 13:26:34;;;;;;;1.60;0.60;;;;;;;;;;5052620;28;20131;-80
2023/04/27 13:29:20;;;;;;;3.50;0.90;;;;;;;;;;5038766;28;20041;-80
2023/04/27 13:31:46;;;;;;;3.10;0.82;;;;;;;;;;4988288;28;20097;-80
2023/04/27 13:34:11;;;;;;;2.78;0.60;;;;;;;;;;4975321;28;20465;-80
2023/04/27 13:36:36;;;;;;;2.60;0.70;;;;;;;;;;4987723;28;20489;-79
2023/04/27 13:39:03;;;;;;;2.97;0.85;;;;;;;;;;4974597;28;20644;-80
2023/04/27 13:41:30;;;;;;;2.13;0.70;;;;;;;;;;4973729;28;20111;-80
2023/04/27 13:43:55;;;;;;;1.80;0.60;;;;;;;;;;4978293;28;20037;-80
2023/04/27 13:46:21;;;;;;;3.20;0.70;;;;;;;;;;4963661;28;20101;-80
2023/04/27 13:48:46;;;;;;;2.65;0.90;;;;;;;;;;4975459;28;20057;-80
2023/04/27 13:51:12;;;;;;;2.47;0.68;;;;;;;;;;4988826;28;20046;-80
2023/04/27 13:53:37;;;;;;;3.40;1.02;;;;;;;;;;4958923;28;20038;-80
2023/04/27 13:56:02;;;;;;;2.00;0.82;;;;;;;;;;4966685;28;20050;-80
2023/04/27 13:58:30;;;;;;;2.53;0.75;;;;;;;;;;4965495;28;20044;-80
2023/04/27 14:00:57;;;;;;;2.50;0.95;;;;;;;;;;4990101;28;20077;-80
2023/04/27 14:03:22;;;;;;;2.13;0.63;;;;;;;;;;4986874;28;20617;-80
2023/04/27 14:05:49;;;;;;;2.85;0.80;;;;;;;;;;4986885;28;20069;-79
2023/04/27 14:08:15;;;;;;;3.85;0.70;;;;;;;;;;5006716;28;20548;-80
2023/04/27 14:10:40;;;;;;;2.85;0.70;;;;;;;;;;5048603;28;20035;-79
2023/04/27 14:13:06;;;;;;;3.22;0.80;;;;;;;;;;5047417;28;20045;-79
2023/04/27 14:15:35;;;;;;;5.05;1.08;;;;;;;;;;5046379;28;20041;-79
2023/04/27 14:18:05;;;;;;;1.40;0.70;;;;;;;;;;5039628;28;20132;-80
2023/04/27 14:20:31;;;;;;;2.15;0.80;;;;;;;;;;5052789;28;20476;-79
2023/04/27 14:22:56;;;;;;;2.60;0.70;;;;;;;;;;5052033;28;20035;-80
2023/04/27 14:25:22;;;;;;;3.13;0.90;;;;;;;;;;5035369;28;20108;-79
2023/04/27 14:27:47;;;;;;;2.75;1.00;;;;;;;;;;5053293;28;20064;-80
2023/04/27 14:30:14;;;;;;;1.50;0.70;;;;;;;;;;5056292;28;20041;-79
2023/04/27 14:32:40;;;;;;;2.40;0.70;;;;;;;;;;5051039;28;20437;-80
2023/04/27 14:35:06;;;;;;;2.50;0.80;;;;;;;;;;5048636;28;20047;-79
2023/04/27 14:37:32;;;;;;;1.73;0.80;;;;;;;;;;5051339;28;20162;-79
2023/04/27 14:39:59;;;;;;;4.22;0.70;;;;;;;;;;5042893;28;20998;-80